createdAt,value
2023-03-22T00:02:47.444Z,21.23
2023-03-22T00:06:47.399Z,21.23
2023-03-22T00:10:47.402Z,21.22
2023-03-22T00:14:47.461Z,21.21
2023-03-22T00:18:47.379Z,21.22
2023-03-22T00:22:47.390Z,21.19
2023-03-22T00:26:47.440Z,21.20
2023-03-22T00:30:47.365Z,21.19
2023-03-22T00:34:47.476Z,21.18
2023-03-22T00:38:47.400Z,21.19
2023-03-22T00:42:47.362Z,21.17
2023-03-22T00:46:47.345Z,21.17
2023-03-22T00:50:47.467Z,21.15
2023-03-22T00:54:47.379Z,21.17
2023-03-22T00:58:47.416Z,21.15
2023-03-22T01:02:47.533Z,21.14
2023-03-22T01:06:47.470Z,21.14
2023-03-22T01:10:47.485Z,21.14
2023-03-22T01:14:47.912Z,21.13
2023-03-22T01:18:47.562Z,21.13
2023-03-22T01:22:47.604Z,21.12
2023-03-22T01:26:47.664Z,21.13
2023-03-22T01:30:47.772Z,21.12
2023-03-22T01:34:47.715Z,21.12
2023-03-22T01:38:47.843Z,21.12
2023-03-22T01:42:48.024Z,21.10
2023-03-22T01:46:47.889Z,21.10
2023-03-22T01:50:48.439Z,21.10
2023-03-22T01:54:47.899Z,21.10
2023-03-22T01:58:47.953Z,21.09
2023-03-22T02:02:47.983Z,21.08
2023-03-22T02:06:48.921Z,21.09
2023-03-22T02:10:48.030Z,21.08
2023-03-22T02:14:48.052Z,21.08
2023-03-22T02:18:48.124Z,21.08
2023-03-22T02:22:48.257Z,21.06
2023-03-22T02:26:48.224Z,21.06
2023-03-22T02:30:48.363Z,21.05
2023-03-22T02:34:48.273Z,21.06
2023-03-22T02:38:48.344Z,21.05
2023-03-22T02:42:48.365Z,21.04
2023-03-22T02:46:48.530Z,21.04
2023-03-22T02:50:48.519Z,21.05
2023-03-22T02:54:48.541Z,21.04
2023-03-22T02:58:48.569Z,21.02
2023-03-22T03:02:48.626Z,21.02
2023-03-22T03:06:48.704Z,21.01
2023-03-22T03:10:48.731Z,21.01
2023-03-22T03:14:48.917Z,21.01
2023-03-22T03:18:48.928Z,20.99
2023-03-22T03:22:49.022Z,20.99
2023-03-22T03:26:49.079Z,20.99
2023-03-22T03:30:49.150Z,20.99
2023-03-22T03:34:49.174Z,20.98
2023-03-22T03:38:49.257Z,20.97
2023-03-22T03:42:49.375Z,20.97
2023-03-22T03:46:49.415Z,20.97
2023-03-22T03:50:49.484Z,20.98
2023-03-22T03:54:49.497Z,20.97
2023-03-22T03:58:49.577Z,20.96
2023-03-22T04:02:49.643Z,20.95
2023-03-22T04:06:49.784Z,20.95
2023-03-22T04:10:49.854Z,20.95
2023-03-22T04:14:49.970Z,20.94
2023-03-22T04:18:50.148Z,20.94
2023-03-22T04:22:50.079Z,20.94
2023-03-22T04:26:50.155Z,20.93
2023-03-22T04:30:50.347Z,20.93
2023-03-22T04:34:50.370Z,20.92
2023-03-22T04:38:50.421Z,20.91
2023-03-22T04:42:50.487Z,20.90
2023-03-22T04:46:50.677Z,20.90
2023-03-22T04:50:50.808Z,20.89
2023-03-22T04:54:50.909Z,20.89
2023-03-22T04:58:51.002Z,20.88
2023-03-22T05:02:51.140Z,20.87
2023-03-22T05:06:51.252Z,20.87
2023-03-22T05:10:51.328Z,20.87
2023-03-22T05:14:51.618Z,20.85
2023-03-22T05:18:51.552Z,20.86
2023-03-22T05:22:52.057Z,20.85
2023-03-22T05:26:51.926Z,20.90
2023-03-22T05:30:52.014Z,20.99
2023-03-22T05:34:52.138Z,21.09
2023-03-22T05:38:52.063Z,21.20
2023-03-22T05:42:52.135Z,21.37
2023-03-22T05:46:52.366Z,21.52
2023-03-22T05:50:52.272Z,21.64
2023-03-22T05:54:55.037Z,21.75
2023-03-22T05:58:52.225Z,21.85
2023-03-22T06:02:52.356Z,21.95
2023-03-22T06:06:52.064Z,22.07
2023-03-22T06:10:52.167Z,22.20
2023-03-22T06:14:52.040Z,22.31
2023-03-22T06:18:52.071Z,22.44
2023-03-22T06:22:52.002Z,22.56
2023-03-22T06:26:52.042Z,22.66
2023-03-22T06:30:55.979Z,22.72
2023-03-22T06:34:58.653Z,22.77
2023-03-22T06:38:55.135Z,22.69
2023-03-22T06:42:52.564Z,22.77
2023-03-22T06:46:51.815Z,22.89
2023-03-22T06:50:52.054Z,23.03
2023-03-22T06:59:10.747Z,23.18
2023-03-22T07:03:10.816Z,23.28
2023-03-22T07:15:48.282Z,23.47
2023-03-22T07:24:07.233Z,23.49
2023-03-22T07:28:07.117Z,23.51
2023-03-22T07:32:07.252Z,23.53
2023-03-22T07:36:07.302Z,23.57
2023-03-22T07:40:07.977Z,23.63
2023-03-22T07:44:17.655Z,23.67
2023-03-22T07:48:08.337Z,23.69
2023-03-22T07:52:10.879Z,23.73
2023-03-22T07:56:07.551Z,23.79
2023-03-22T08:00:07.556Z,23.81
2023-03-22T08:04:07.256Z,23.86
2023-03-22T08:08:07.186Z,23.91
2023-03-22T08:12:07.217Z,23.97
2023-03-22T08:16:07.214Z,24.04
2023-03-22T08:20:07.100Z,24.14
2023-03-22T08:24:07.451Z,24.22
2023-03-22T08:28:07.228Z,24.21
2023-03-22T08:32:07.257Z,24.21
2023-03-22T08:36:08.428Z,24.24
2023-03-22T08:40:07.581Z,23.97
2023-03-22T08:44:07.512Z,23.70
2023-03-22T08:48:08.479Z,23.57
2023-03-22T08:52:07.789Z,23.46
2023-03-22T08:56:07.944Z,23.43
2023-03-22T09:00:08.119Z,23.46
2023-03-22T09:04:10.534Z,23.54
2023-03-22T09:08:08.372Z,23.52
2023-03-22T09:12:08.164Z,23.51
2023-03-22T09:16:07.990Z,23.44
2023-03-22T09:20:12.702Z,23.39
2023-03-22T09:24:07.938Z,23.47
2023-03-22T09:28:10.955Z,23.44
2023-03-22T09:32:10.174Z,23.45
2023-03-22T09:36:07.757Z,23.44
2023-03-22T09:40:11.282Z,23.44
2023-03-22T09:44:08.040Z,23.42
2023-03-22T09:48:08.129Z,23.46
2023-03-22T09:52:08.054Z,23.58
2023-03-22T09:56:07.714Z,23.72
2023-03-22T10:00:08.517Z,23.83
2023-03-22T10:04:08.108Z,23.89
2023-03-22T10:08:07.643Z,23.92
2023-03-22T10:12:07.478Z,23.95
2023-03-22T10:16:07.510Z,23.96
2023-03-22T10:20:07.497Z,23.99
2023-03-22T10:24:07.334Z,24.06
2023-03-22T10:28:07.404Z,24.13
2023-03-22T10:32:07.257Z,24.19
2023-03-22T10:36:07.327Z,24.25
2023-03-22T10:40:07.445Z,24.04
2023-03-22T10:44:07.432Z,23.73
2023-03-22T10:48:07.732Z,23.52
2023-03-22T10:52:08.474Z,23.39
2023-03-22T10:56:08.786Z,23.30
2023-03-22T11:00:08.175Z,23.21
2023-03-22T11:04:08.306Z,23.18
2023-03-22T11:08:08.286Z,23.15
2023-03-22T11:12:08.264Z,23.10
2023-03-22T11:16:08.261Z,23.05
2023-03-22T11:20:08.206Z,23.03
2023-03-22T11:24:09.150Z,23.02
2023-03-22T11:28:08.408Z,23.01
2023-03-22T11:32:08.632Z,23.02
2023-03-22T11:36:08.151Z,23.02
2023-03-22T11:40:08.058Z,23.03
2023-03-22T11:44:07.959Z,23.02
2023-03-22T11:48:08.360Z,23.00
2023-03-22T11:52:08.067Z,22.96
2023-03-22T11:56:08.054Z,22.85
2023-03-22T12:00:08.151Z,22.82
2023-03-22T12:04:08.076Z,22.74
2023-03-22T12:08:08.166Z,22.69
2023-03-22T12:12:07.839Z,22.66
2023-03-22T12:16:07.983Z,22.67
2023-03-22T12:20:08.080Z,22.70
2023-03-22T12:24:07.827Z,22.79
2023-03-22T12:28:07.743Z,22.87
2023-03-22T12:32:07.743Z,22.91
2023-03-22T12:36:08.456Z,22.94
2023-03-22T12:40:07.655Z,22.97
2023-03-22T12:44:07.926Z,22.98
2023-03-22T12:48:08.036Z,23.00
2023-03-22T12:52:07.769Z,23.01
2023-03-22T12:56:07.749Z,23.02
2023-03-22T13:00:07.670Z,23.01
2023-03-22T13:04:07.702Z,23.01
2023-03-22T13:08:07.552Z,23.02
2023-03-22T13:12:08.026Z,23.03
2023-03-22T13:16:09.485Z,23.02
2023-03-22T13:20:07.690Z,23.02
2023-03-22T13:24:07.585Z,23.03
2023-03-22T13:28:07.607Z,23.03
2023-03-22T13:32:07.694Z,23.03
2023-03-22T13:36:07.584Z,23.02
2023-03-22T13:40:07.492Z,23.03
2023-03-22T13:44:07.438Z,23.04
2023-03-22T13:48:07.627Z,23.03
2023-03-22T13:52:07.350Z,23.02
2023-03-22T13:56:07.383Z,23.03
2023-03-22T14:00:12.116Z,23.02
2023-03-22T14:04:08.695Z,23.03
2023-03-22T14:08:07.388Z,23.02
2023-03-22T14:12:07.508Z,23.02
2023-03-22T14:16:08.172Z,23.02
2023-03-22T14:20:08.020Z,23.01
2023-03-22T14:49:09.118Z,22.96
2023-03-22T14:53:09.372Z,22.96
2023-03-22T14:57:09.631Z,22.94
2023-03-22T15:01:09.758Z,22.93
2023-03-22T15:05:10.008Z,22.92
2023-03-22T15:09:10.173Z,22.91
2023-03-22T15:13:10.211Z,22.91
2023-03-22T15:17:10.245Z,22.90
2023-03-22T15:21:10.123Z,22.89
2023-03-22T15:25:10.077Z,22.87
2023-03-22T15:29:09.996Z,22.87
2023-03-22T15:33:09.965Z,22.86
2023-03-22T15:37:09.992Z,22.85
2023-03-22T15:41:09.984Z,22.87
2023-03-22T15:45:10.040Z,22.89
2023-03-22T15:49:09.904Z,22.88
2023-03-22T15:53:09.885Z,22.86
2023-03-22T15:57:09.871Z,22.84
2023-03-22T16:01:09.835Z,22.83
2023-03-22T16:05:09.723Z,22.82
2023-03-22T16:09:09.713Z,22.80
2023-03-22T16:13:09.742Z,22.79
2023-03-22T16:17:09.634Z,22.78
2023-03-22T16:21:09.562Z,22.78
2023-03-22T16:25:09.527Z,22.76
2023-03-22T16:29:09.673Z,22.73
2023-03-22T16:33:09.650Z,22.72
2023-03-22T16:37:09.599Z,22.71
2023-03-22T16:41:09.527Z,22.69
2023-03-22T16:45:09.521Z,22.68
2023-03-22T16:49:09.469Z,22.66
2023-03-22T16:53:09.493Z,22.65
2023-03-22T16:57:09.446Z,22.63
2023-03-22T17:01:09.366Z,22.62
2023-03-22T17:05:09.359Z,22.61
2023-03-22T17:09:09.296Z,22.59
2023-03-22T17:13:09.277Z,22.57
2023-03-22T17:17:09.271Z,22.55
2023-03-22T17:21:09.313Z,22.54
2023-03-22T17:25:09.384Z,22.52
2023-03-22T17:29:09.416Z,22.52
2023-03-22T17:33:09.794Z,22.50
2023-03-22T17:37:09.417Z,22.48
2023-03-22T17:41:09.448Z,22.45
2023-03-22T17:45:10.016Z,22.44
2023-03-22T17:49:09.376Z,22.42
2023-03-22T17:53:23.107Z,22.41
2023-03-22T17:57:36.286Z,22.39
2023-03-22T18:01:10.473Z,22.38
2023-03-22T18:05:09.268Z,22.37
2023-03-22T18:09:09.240Z,22.35
2023-03-22T18:13:09.199Z,22.35
2023-03-22T18:17:09.242Z,22.33
2023-03-22T18:21:09.101Z,22.33
2023-03-22T18:25:09.063Z,22.31
2023-03-22T18:29:09.027Z,22.30
2023-03-22T18:33:09.034Z,22.29
2023-03-22T18:37:09.028Z,22.28
2023-03-22T18:41:34.486Z,22.27
2023-03-22T18:45:10.602Z,22.25
2023-03-22T18:49:08.894Z,22.25
2023-03-22T18:53:18.438Z,22.24
2023-03-22T18:57:10.813Z,22.24
2023-03-22T19:01:08.766Z,22.21
2023-03-22T19:05:08.680Z,22.20
2023-03-22T19:09:08.653Z,22.18
2023-03-22T19:13:08.630Z,22.17
2023-03-22T19:17:08.719Z,22.16
2023-03-22T19:21:13.393Z,22.16
2023-03-22T19:25:09.722Z,22.15
2023-03-22T19:29:08.727Z,22.14
2023-03-22T19:33:27.686Z,22.13
2023-03-22T19:37:09.639Z,22.09
2023-03-22T19:41:40.557Z,22.08
2023-03-22T19:45:09.558Z,22.07
2023-03-22T19:49:08.551Z,22.06
2023-03-22T19:53:38.698Z,22.04
2023-03-22T19:57:09.442Z,22.03
2023-03-22T20:01:08.464Z,22.01
2023-03-22T20:05:16.374Z,22.01
2023-03-22T20:09:09.307Z,22.00
2023-03-22T20:13:08.375Z,21.98
2023-03-22T20:17:10.524Z,21.98
2023-03-22T20:21:08.205Z,21.97
2023-03-22T20:25:08.181Z,21.98
2023-03-22T20:29:08.152Z,22.00
2023-03-22T20:33:08.101Z,22.00
2023-03-22T20:37:08.098Z,22.01
2023-03-22T20:41:08.067Z,22.02
2023-03-22T20:45:08.080Z,22.01
2023-03-22T20:49:08.214Z,22.01
2023-03-22T20:53:08.337Z,22.00
2023-03-22T20:57:08.468Z,22.00
2023-03-22T21:01:08.655Z,21.98
2023-03-22T21:05:08.722Z,21.98
2023-03-22T21:09:08.832Z,21.97
2023-03-22T21:13:08.972Z,21.96
2023-03-22T21:17:09.083Z,21.95
2023-03-22T21:21:09.228Z,21.95
2023-03-22T21:25:09.351Z,21.95
2023-03-22T21:29:09.598Z,21.94
2023-03-22T21:33:09.657Z,21.94
2023-03-22T21:37:09.840Z,21.92
2023-03-22T21:41:10.014Z,21.92
2023-03-22T21:45:10.092Z,21.92
2023-03-22T21:49:10.305Z,21.92
2023-03-22T21:53:10.387Z,21.91
2023-03-22T21:57:10.551Z,21.90
2023-03-22T22:01:10.792Z,21.90
2023-03-22T22:05:10.915Z,21.89
2023-03-22T22:09:11.101Z,21.88
2023-03-22T22:13:11.254Z,21.87
2023-03-22T22:17:11.433Z,21.87
2023-03-22T22:21:11.574Z,21.86
2023-03-22T22:25:11.760Z,21.88
2023-03-22T22:29:11.926Z,21.86
2023-03-22T22:33:12.106Z,21.85
2023-03-22T22:37:12.599Z,21.85
2023-03-22T22:41:12.494Z,21.83
2023-03-22T22:45:12.647Z,21.84
2023-03-22T22:49:12.615Z,21.83
2023-03-22T22:53:12.549Z,21.82
2023-03-22T22:57:12.699Z,21.81
2023-03-22T23:01:12.855Z,21.81
2023-03-22T23:05:13.093Z,21.80
2023-03-22T23:09:13.233Z,21.81
2023-03-22T23:13:13.449Z,21.79
2023-03-22T23:17:13.709Z,21.79
2023-03-22T23:21:13.855Z,21.79
2023-03-22T23:25:14.063Z,21.79
2023-03-22T23:29:14.271Z,21.78
2023-03-22T23:33:14.448Z,21.77
2023-03-22T23:37:14.695Z,21.77
2023-03-22T23:41:14.900Z,21.77
2023-03-22T23:45:14.903Z,21.76
2023-03-22T23:49:14.846Z,21.76
2023-03-22T23:53:14.791Z,21.75
2023-03-22T23:57:14.758Z,21.76
